Time;durP1;ratioP1;P1;durP2;ratioP2;P2;SDS_P1;SDS_P2;PMS_P1;PMS_P2;Temp;Humidity;BMP_temperature;BMP_pressure;BME280_temperature;BME280_humidity;BME280_pressure;Samples;Min_cycle;Max_cycle;Signal;HPM_P1;HPM_P2
2021/07/18 00:02:08;;;;;;;17.52;12.90;;;;;;;21.16;69.12;99355.97;5032804;28;20565;-78
2021/07/18 00:04:34;;;;;;;17.90;14.15;;;;;;;21.00;69.16;99342.81;5014878;28;20045;-77
2021/07/18 00:07:00;;;;;;;18.67;13.95;;;;;;;20.95;69.65;99348.41;5015128;28;20045;-78
2021/07/18 00:09:26;;;;;;;32.53;14.15;;;;;;;20.96;69.44;99359.84;5031932;28;20047;-79
2021/07/18 00:11:52;;;;;;;24.63;14.20;;;;;;;20.83;69.65;99343.84;5014906;28;20049;-79
2021/07/18 00:14:18;;;;;;;23.90;13.52;;;;;;;20.90;69.84;99364.53;4998511;28;20035;-78
2021/07/18 00:16:44;;;;;;;17.13;12.18;;;;;;;20.85;70.08;99365.75;4998550;28;20057;-77
2021/07/18 00:19:10;;;;;;;21.17;13.65;;;;;;;20.71;70.18;99348.84;5015024;28;20123;-79
2021/07/18 00:21:36;;;;;;;23.50;13.50;;;;;;;20.65;70.17;99346.56;4998306;28;20085;-78
2021/07/18 00:24:03;;;;;;;17.30;12.98;;;;;;;20.52;70.49;99332.38;4996692;28;20049;-78
2021/07/18 00:26:29;;;;;;;17.23;12.60;;;;;;;20.60;70.26;99346.00;4969789;28;20046;-78
2021/07/18 00:29:02;;;;;;;18.42;12.82;;;;;;;20.56;70.33;99347.13;4971880;28;20138;-78
2021/07/18 00:31:28;;;;;;;19.10;12.50;;;;;;;20.56;70.35;99353.22;5013957;28;20065;-77
2021/07/18 00:34:04;;;;;;;17.55;13.45;;;;;;;20.54;70.66;99359.56;5015214;28;20041;-77
2021/07/18 00:36:30;;;;;;;16.50;12.02;;;;;;;20.46;71.03;99352.06;5013036;28;20042;-76
2021/07/18 00:38:56;;;;;;;17.13;12.70;;;;;;;20.43;70.89;99341.69;5014306;28;20046;-78
2021/07/18 00:41:22;;;;;;;17.85;11.85;;;;;;;20.37;71.06;99334.09;5007524;28;20057;-77
2021/07/18 00:43:48;;;;;;;20.30;13.00;;;;;;;20.30;71.16;99328.31;4997418;28;20061;-77
2021/07/18 00:46:14;;;;;;;17.77;12.98;;;;;;;20.35;71.37;99336.84;5028927;28;20026;-77
2021/07/18 00:48:40;;;;;;;18.58;12.90;;;;;;;20.32;71.36;99344.94;4997587;28;20042;-76
2021/07/18 00:51:07;;;;;;;18.00;12.48;;;;;;;20.06;71.46;99305.00;4979746;28;20029;-79
2021/07/18 00:53:33;;;;;;;19.63;12.68;;;;;;;20.28;71.63;99346.91;5012332;28;20041;-79
2021/07/18 00:55:59;;;;;;;17.92;12.00;;;;;;;20.19;71.47;99333.38;4961307;28;20042;-77
2021/07/18 00:58:29;;;;;;;24.42;13.25;;;;;;;20.07;71.62;99322.53;4978146;28;20111;-78
2021/07/18 01:00:56;;;;;;;18.92;11.30;;;;;;;20.26;71.61;99346.13;5011794;28;20041;-80
2021/07/18 01:03:22;;;;;;;15.77;11.65;;;;;;;20.26;71.67;99346.13;4994819;28;20088;-78
2021/07/18 01:05:48;;;;;;;19.15;12.30;;;;;;;20.26;72.11;99345.28;4994543;28;20132;-77
2021/07/18 01:08:15;;;;;;;19.88;12.07;;;;;;;20.23;71.89;99348.94;5011969;28;20073;-76
2021/07/18 01:10:41;;;;;;;19.85;11.88;;;;;;;20.19;71.84;99350.06;5012759;28;20042;-77
2021/07/18 01:13:07;;;;;;;22.63;12.88;;;;;;;20.05;72.06;99337.63;4994088;28;20069;-77
2021/07/18 01:15:33;;;;;;;24.02;12.77;;;;;;;20.10;71.87;99348.78;4993859;28;20126;-77
2021/07/18 01:17:59;;;;;;;17.23;12.05;;;;;;;19.98;71.88;99326.53;5011222;28;20177;-76
2021/07/18 01:20:25;;;;;;;18.00;12.57;;;;;;;20.06;72.26;99349.03;5011891;28;20675;-76
2021/07/18 01:22:51;;;;;;;23.27;12.55;;;;;;;20.01;72.42;99346.63;5019685;28;20057;-76
2021/07/18 01:25:17;;;;;;;15.48;12.00;;;;;;;19.95;72.17;99332.00;5013224;28;20041;-77
2021/07/18 01:27:44;;;;;;;17.13;11.68;;;;;;;19.94;72.42;99327.66;5013027;28;20527;-76
2021/07/18 01:30:12;;;;;;;17.85;11.90;;;;;;;20.04;72.54;99343.84;5014453;28;20038;-76
2021/07/18 01:32:42;;;;;;;15.65;11.43;;;;;;;19.88;72.30;99311.31;5032351;28;20144;-77
2021/07/18 01:35:09;;;;;;;17.10;12.07;;;;;;;20.04;72.46;99341.19;5021097;28;20040;-77
2021/07/18 01:37:35;;;;;;;19.83;11.38;;;;;;;20.05;72.64;99348.19;5023233;28;20049;-75
2021/07/18 01:40:01;;;;;;;19.90;12.02;;;;;;;20.00;72.37;99331.72;5017221;28;20079;-77
2021/07/18 01:42:27;;;;;;;17.27;11.32;;;;;;;20.10;72.44;99340.00;5017527;28;20071;-77
2021/07/18 01:44:53;;;;;;;19.45;11.40;;;;;;;19.91;72.25;99313.78;5001227;28;20033;-76
2021/07/18 01:47:19;;;;;;;17.98;11.93;;;;;;;20.08;72.55;99348.00;5018027;28;20095;-77
2021/07/18 01:49:48;;;;;;;17.73;11.95;;;;;;;20.09;72.72;99349.72;5016911;28;20045;-76
2021/07/18 01:52:17;;;;;;;16.25;12.38;;;;;;;20.08;72.79;99347.16;5017782;28;20091;-77
2021/07/18 01:54:44;;;;;;;19.83;12.32;;;;;;;20.08;72.84;99353.28;5034789;28;20045;-79
2021/07/18 01:57:18;;;;;;;18.15;12.45;;;;;;;20.12;73.02;99352.19;5033650;28;20787;-79
2021/07/18 01:59:44;;;;;;;21.17;12.00;;;;;;;20.06;72.72;99339.31;5034528;28;20045;-78
2021/07/18 02:02:10;;;;;;;17.27;12.52;;;;;;;20.19;72.96;99359.78;5017853;28;20033;-80
2021/07/18 02:04:36;;;;;;;19.17;12.60;;;;;;;20.10;72.85;99346.13;5034993;28;20394;-77
2021/07/18 02:07:06;;;;;;;17.75;13.57;;;;;;;20.21;73.08;99358.75;5000760;28;20048;-78
2021/07/18 02:09:36;;;;;;;17.73;12.27;;;;;;;20.21;73.28;99345.53;5019911;28;20033;-77
2021/07/18 02:12:04;;;;;;;18.35;12.75;;;;;;;20.36;72.97;99361.44;5009734;28;20057;-78
2021/07/18 02:14:31;;;;;;;15.32;11.55;;;;;;;20.41;73.25;99359.41;5040327;28;20040;-80
2021/07/18 02:16:57;;;;;;;15.77;12.43;;;;;;;20.41;73.09;99349.66;5002448;28;20049;-79
2021/07/18 02:19:28;;;;;;;17.02;12.18;;;;;;;20.43;72.90;99346.97;5018762;28;20095;-81
2021/07/18 02:21:55;;;;;;;16.17;11.88;;;;;;;20.61;72.94;99356.47;5018798;28;20041;-77
2021/07/18 02:24:20;;;;;;;14.88;11.55;;;;;;;20.69;72.57;99363.13;4982840;28;20042;-79
2021/07/18 02:26:46;;;;;;;16.75;11.55;;;;;;;20.67;72.78;99344.69;5016301;28;20041;-80
2021/07/18 02:29:12;;;;;;;16.33;11.63;;;;;;;20.74;72.29;99338.09;4999202;28;20041;-80
2021/07/18 02:31:40;;;;;;;15.95;10.88;;;;;;;20.89;72.19;99346.97;4997633;28;20505;-78
2021/07/18 02:34:06;;;;;;;16.30;10.98;;;;;;;20.99;72.17;99344.63;4997453;28;20572;-81
2021/07/18 02:36:36;;;;;;;14.13;11.68;;;;;;;21.19;72.19;99361.94;5017375;28;20133;-79
2021/07/18 02:39:04;;;;;;;17.42;11.48;;;;;;;21.23;72.05;99349.41;4982662;28;20045;-78
2021/07/18 02:41:34;;;;;;;19.10;11.82;;;;;;;21.09;71.84;99307.91;5015247;28;20505;-78
2021/07/18 02:44:03;;;;;;;20.37;11.33;;;;;;;21.59;71.28;99360.47;4977789;28;20041;-80
2021/07/18 02:46:29;;;;;;;18.30;10.95;;;;;;;21.70;71.11;99365.13;4984142;28;20525;-79
2021/07/18 02:48:58;;;;;;;15.45;11.48;;;;;;;21.84;71.14;99362.47;5015023;28;20038;-79
2021/07/18 02:51:24;;;;;;;20.73;11.65;;;;;;;21.96;70.83;99355.53;4998168;28;20045;-80
2021/07/18 02:53:50;;;;;;;15.95;10.95;;;;;;;22.00;70.87;99346.47;5016383;28;20045;-80
2021/07/18 02:56:17;;;;;;;16.67;10.93;;;;;;;22.12;70.26;99350.97;4989498;28;20358;-80
2021/07/18 02:58:43;;;;;;;19.40;11.05;;;;;;;22.30;70.10;99363.97;5018739;28;20052;-79
2021/07/18 03:01:09;;;;;;;20.75;11.18;;;;;;;22.43;69.51;99364.06;5024527;28;20061;-79
2021/07/18 03:03:35;;;;;;;17.75;11.35;;;;;;;22.54;69.12;99355.41;4996574;28;20038;-82
2021/07/18 03:06:01;;;;;;;14.60;10.38;;;;;;;22.69;68.98;99361.50;5013773;28;20046;-79
2021/07/18 03:08:27;;;;;;;18.50;10.57;;;;;;;22.82;68.50;99356.22;4996130;28;20041;-79
2021/07/18 03:10:53;;;;;;;17.20;10.40;;;;;;;23.05;68.31;99365.28;4996000;28;20045;-78
2021/07/18 03:13:21;;;;;;;18.15;11.32;;;;;;;23.17;67.30;99360.97;5013237;28;20038;-81
2021/07/18 03:15:47;;;;;;;15.30;10.73;;;;;;;23.37;66.98;99369.38;4996205;28;20161;-80
2021/07/18 03:18:13;;;;;;;14.77;11.10;;;;;;;23.35;66.26;99350.88;4995851;28;20486;-81
2021/07/18 03:20:39;;;;;;;14.15;11.13;;;;;;;23.58;66.25;99348.44;4996280;28;20038;-79
2021/07/18 03:23:06;;;;;;;16.17;10.32;;;;;;;23.80;65.56;99362.84;5023234;28;20127;-81
2021/07/18 03:25:32;;;;;;;17.23;10.63;;;;;;;23.87;65.21;99340.22;5033738;28;20037;-80
2021/07/18 03:27:58;;;;;;;14.27;11.32;;;;;;;24.12;64.45;99354.41;5016095;28;20033;-78
2021/07/18 03:30:25;;;;;;;16.50;11.65;;;;;;;24.31;63.75;99351.25;4983253;28;20045;-78
2021/07/18 03:32:51;;;;;;;17.58;11.85;;;;;;;24.37;63.62;99353.47;5015936;28;20049;-81
2021/07/18 03:35:17;;;;;;;21.00;13.27;;;;;;;24.47;63.16;99348.31;5034519;28;20041;-79
2021/07/18 03:37:43;;;;;;;19.15;12.45;;;;;;;24.59;62.53;99357.19;5036854;28;20052;-80
2021/07/18 03:40:12;;;;;;;23.65;13.10;;;;;;;24.62;62.26;99347.16;5015660;28;20041;-79
2021/07/18 03:42:39;;;;;;;18.33;11.70;;;;;;;24.85;61.60;99349.09;5015492;28;20037;-80
2021/07/18 03:45:06;;;;;;;18.08;11.73;;;;;;;25.12;61.14;99359.44;4998866;28;20144;-79
2021/07/18 03:47:32;;;;;;;17.50;10.50;;;;;;;25.18;60.47;99350.13;5033472;28;20476;-80
2021/07/18 03:49:58;;;;;;;19.25;11.38;;;;;;;25.36;59.81;99361.16;5014902;28;20456;-78
2021/07/18 03:52:24;;;;;;;18.90;11.25;;;;;;;25.42;59.10;99350.06;4990514;28;20022;-80
2021/07/18 03:54:50;;;;;;;17.05;11.18;;;;;;;25.63;58.26;99373.31;5004759;28;20041;-76
2021/07/18 03:57:16;;;;;;;15.68;10.73;;;;;;;25.79;58.35;99356.97;5032859;28;20055;-77
2021/07/18 03:59:42;;;;;;;17.50;11.25;;;;;;;25.96;57.53;99355.59;5031342;28;20041;-77
2021/07/18 04:02:08;;;;;;;13.73;9.95;;;;;;;26.00;56.47;99333.94;4998563;28;20038;-77
2021/07/18 04:04:36;;;;;;;17.17;11.25;;;;;;;26.27;56.15;99363.84;5032811;28;20049;-77
2021/07/18 04:07:02;;;;;;;14.77;11.05;;;;;;;26.22;55.98;99326.91;4998273;28;20052;-77
2021/07/18 04:09:28;;;;;;;15.32;9.70;;;;;;;26.45;55.20;99342.81;4981945;28;20076;-77
2021/07/18 04:11:54;;;;;;;14.73;10.45;;;;;;;26.58;54.84;99331.97;5030996;28;20037;-78
2021/07/18 04:14:20;;;;;;;13.70;9.85;;;;;;;26.79;53.87;99348.00;5014544;28;20087;-77
2021/07/18 04:16:46;;;;;;;15.43;9.70;;;;;;;26.73;53.75;99312.00;5030805;28;20049;-77
2021/07/18 04:19:12;;;;;;;13.63;9.57;;;;;;;27.02;53.20;99338.09;5015180;28;20390;-76
2021/07/18 04:21:38;;;;;;;16.27;9.25;;;;;;;27.11;52.23;99339.13;5014835;28;20533;-76
2021/07/18 04:24:04;;;;;;;12.32;9.43;;;;;;;27.19;52.02;99333.13;5032292;28;20054;-77
2021/07/18 04:26:30;;;;;;;12.85;9.27;;;;;;;27.25;51.62;99323.72;4999135;28;20118;-78
2021/07/18 04:28:56;;;;;;;11.52;9.25;;;;;;;27.42;51.22;99346.31;5043301;28;20037;-77
2021/07/18 04:31:22;;;;;;;11.00;9.30;;;;;;;27.51;51.32;99353.53;5042626;28;20075;-77
2021/07/18 04:33:50;;;;;;;12.75;9.10;;;;;;;27.36;50.38;99305.78;5022574;28;20041;-76
2021/07/18 04:36:17;;;;;;;15.80;9.73;;;;;;;27.80;50.65;99344.78;5000578;28;20138;-77
2021/07/18 04:38:44;;;;;;;13.75;8.93;;;;;;;28.00;49.71;99337.69;4998040;28;20043;-77
2021/07/18 04:41:10;;;;;;;14.48;9.38;;;;;;;28.15;49.02;99322.09;5014558;28;20497;-78
2021/07/18 04:43:38;;;;;;;15.05;9.77;;;;;;;28.36;48.46;99330.00;5032404;28;20053;-77
2021/07/18 04:46:07;;;;;;;14.00;9.18;;;;;;;28.56;48.39;99325.50;4997910;28;20107;-76
2021/07/18 04:48:33;;;;;;;15.13;9.35;;;;;;;28.66;47.46;99319.28;5014379;28;20037;-78
2021/07/18 04:50:59;;;;;;;13.15;9.65;;;;;;;28.86;47.47;99339.72;5032292;28;20390;-76
2021/07/18 04:53:24;;;;;;;13.68;8.60;;;;;;;28.86;47.20;99326.34;5014490;28;20045;-77
2021/07/18 04:55:51;;;;;;;11.18;8.43;;;;;;;28.96;46.67;99329.00;5031598;28;20052;-76
2021/07/18 04:58:17;;;;;;;11.35;8.52;;;;;;;29.13;46.52;99332.78;4997146;28;20135;-77
2021/07/18 05:00:43;;;;;;;10.02;9.00;;;;;;;29.16;46.68;99320.91;5001077;28;20095;-77
2021/07/18 05:03:08;;;;;;;11.68;8.10;;;;;;;29.39;46.07;99336.66;5043901;28;20517;-79
2021/07/18 05:05:34;;;;;;;11.50;8.95;;;;;;;29.53;45.84;99327.31;5031764;28;20041;-78
2021/07/18 05:08:00;;;;;;;11.15;8.45;;;;;;;29.76;45.34;99331.28;5013950;28;20045;-79
2021/07/18 05:10:29;;;;;;;12.18;7.90;;;;;;;29.96;44.61;99339.25;5044572;28;20037;-80
2021/07/18 05:12:57;;;;;;;8.38;7.10;;;;;;;30.13;44.68;99334.91;5027332;28;20106;-81
2021/07/18 05:15:25;;;;;;;10.02;8.18;;;;;;;30.24;43.75;99311.53;5021798;28;20543;-79
2021/07/18 05:17:52;;;;;;;12.02;8.00;;;;;;;30.46;43.80;99320.97;5018891;28;20037;-79
2021/07/18 05:20:22;;;;;;;11.40;8.45;;;;;;;30.64;43.10;99334.41;5018804;28;20123;-78
2021/07/18 05:22:50;;;;;;;10.67;7.97;;;;;;;30.73;42.62;99327.28;5035772;28;20080;-79
2021/07/18 05:25:16;;;;;;;12.93;9.10;;;;;;;30.76;41.94;99332.34;4985488;28;20045;-80
2021/07/18 05:27:42;;;;;;;10.38;7.38;;;;;;;30.78;41.88;99320.44;5035410;28;20052;-76
2021/07/18 05:30:11;;;;;;;10.07;7.90;;;;;;;30.79;41.17;99319.44;5017616;28;20111;-79
2021/07/18 05:32:37;;;;;;;9.52;7.30;;;;;;;30.79;40.80;99297.94;5017278;28;20049;-79
2021/07/18 05:35:05;;;;;;;11.85;7.03;;;;;;;31.16;40.72;99298.72;5036701;28;20037;-78
2021/07/18 05:37:31;;;;;;;8.40;6.82;;;;;;;31.42;40.00;99313.13;5019635;28;20041;-78
2021/07/18 05:39:59;;;;;;;8.43;6.75;;;;;;;31.63;39.25;99312.72;5019436;28;20041;-79
2021/07/18 05:42:29;;;;;;;11.35;7.30;;;;;;;31.82;39.09;99317.00;5018633;28;20386;-78
2021/07/18 05:44:55;;;;;;;9.05;8.15;;;;;;;31.88;37.72;99331.66;5019526;28;20049;-78
2021/07/18 05:47:21;;;;;;;13.13;7.70;;;;;;;31.79;37.61;99299.34;5018950;28;20047;-76
2021/07/18 05:49:47;;;;;;;10.07;7.30;;;;;;;32.22;37.64;99295.75;5017427;28;20060;-77
2021/07/18 05:52:13;;;;;;;8.95;6.88;;;;;;;33.38;36.52;99322.66;5017660;28;20505;-78
2021/07/18 05:54:39;;;;;;;9.20;6.72;;;;;;;35.00;34.48;99324.69;5035398;28;20087;-79
2021/07/18 05:57:05;;;;;;;8.13;6.63;;;;;;;36.69;32.55;99306.72;5001451;28;20424;-78
2021/07/18 05:59:32;;;;;;;7.82;6.60;;;;;;;38.49;30.07;99307.78;5017067;28;20037;-79
2021/07/18 06:01:58;;;;;;;9.57;6.32;;;;;;;39.34;28.47;99306.25;5017979;28;20587;-80
2021/07/18 06:04:24;;;;;;;7.32;6.70;;;;;;;40.74;26.85;99295.59;5018086;28;20105;-79
2021/07/18 06:06:51;;;;;;;6.70;6.00;;;;;;;41.98;25.51;99314.78;5035808;28;20045;-79
2021/07/18 06:09:17;;;;;;;6.38;5.63;;;;;;;43.03;23.94;99312.50;5020803;28;20049;-79
2021/07/18 06:11:43;;;;;;;6.60;5.75;;;;;;;43.78;21.90;99306.38;5022557;28;20147;-78
2021/07/18 06:14:09;;;;;;;6.28;5.68;;;;;;;44.13;21.27;99319.09;5016805;28;20037;-80
2021/07/18 06:16:35;;;;;;;6.72;5.45;;;;;;;44.70;20.72;99306.31;5017118;28;20094;-79
2021/07/18 06:19:02;;;;;;;7.07;5.55;;;;;;;45.71;19.77;99306.31;5017148;28;20037;-79
2021/07/18 06:21:28;;;;;;;6.43;5.80;;;;;;;46.32;18.64;99313.50;5034130;28;20056;-77
2021/07/18 06:23:54;;;;;;;5.97;5.47;;;;;;;47.10;17.59;99311.31;5016609;28;20103;-78
2021/07/18 06:26:41;;;;;;;6.50;5.90;;;;;;;47.63;16.72;99308.53;5037820;28;20419;-79
2021/07/18 06:29:16;;;;;;;6.25;5.57;;;;;;;48.48;16.15;99323.78;5019217;28;20041;-77
2021/07/18 06:31:43;;;;;;;6.20;5.65;;;;;;;49.05;15.20;99298.00;5034623;28;20519;-78
2021/07/18 06:34:09;;;;;;;5.45;5.05;;;;;;;49.68;14.67;99288.34;5017020;28;20141;-80
2021/07/18 06:36:34;;;;;;;6.05;5.45;;;;;;;50.36;14.10;99302.53;5044745;28;20072;-77
2021/07/18 06:39:01;;;;;;;6.90;6.03;;;;;;;50.77;13.64;99307.66;5015024;28;20076;-77
2021/07/18 06:41:27;;;;;;;7.20;6.07;;;;;;;51.23;13.64;99309.09;5044773;28;20420;-77
2021/07/18 06:43:53;;;;;;;6.93;6.32;;;;;;;51.45;12.84;99308.53;5035873;28;20406;-78
2021/07/18 06:46:22;;;;;;;6.75;6.25;;;;;;;51.72;12.75;99281.28;5034850;28;20195;-78
2021/07/18 06:48:48;;;;;;;7.95;6.55;;;;;;;52.29;12.23;99289.53;5034368;28;20140;-79
2021/07/18 06:51:16;;;;;;;6.90;6.38;;;;;;;52.75;11.92;99287.03;5000891;28;20053;-79
2021/07/18 06:53:45;;;;;;;7.45;6.60;;;;;;;52.93;11.54;99296.44;5000163;28;20617;-78
2021/07/18 06:56:15;;;;;;;7.68;6.35;;;;;;;52.62;11.46;99258.16;4984260;28;20041;-78
2021/07/18 06:58:48;;;;;;;8.70;6.28;;;;;;;53.21;10.88;99294.44;5016682;28;20061;-78
2021/07/18 07:01:17;;;;;;;6.97;6.25;;;;;;;52.21;10.28;99234.72;4999515;28;20041;-78
2021/07/18 07:03:42;;;;;;;6.55;6.05;;;;;;;52.07;11.12;99246.63;4999647;28;20041;-78
2021/07/18 07:06:09;;;;;;;5.93;5.35;;;;;;;52.87;10.41;99276.22;5016432;28;20041;-80
2021/07/18 07:08:35;;;;;;;6.40;5.85;;;;;;;53.54;10.22;99274.81;5033800;28;20033;-80
2021/07/18 07:11:03;;;;;;;6.93;6.35;;;;;;;53.00;10.19;99208.81;5034333;28;20045;-78
2021/07/18 07:13:29;;;;;;;;;;;;;;;53.52;9.73;99296.53;5033551;28;20037;-78
2021/07/18 07:15:57;;;;;;;6.35;5.80;;;;;;;52.75;11.04;99296.19;5002788;28;20331;-78
2021/07/18 07:18:25;;;;;;;6.63;6.03;;;;;;;52.97;10.72;99298.28;5023504;28;20120;-81
2021/07/18 07:20:51;;;;;;;6.38;5.88;;;;;;;53.29;10.06;99268.75;5005543;28;20045;-79
2021/07/18 07:23:17;;;;;;;6.90;5.47;;;;;;;53.78;9.49;99273.72;5015499;28;20068;-79
2021/07/18 07:25:42;;;;;;;6.47;5.88;;;;;;;54.48;9.68;99282.50;5033185;28;20242;-79
2021/07/18 07:28:08;;;;;;;7.25;6.43;;;;;;;53.96;9.44;99285.81;5033306;28;20088;-79
2021/07/18 07:30:36;;;;;;;7.00;6.30;;;;;;;53.96;9.68;99285.00;5032813;28;20417;-80
2021/07/18 07:33:04;;;;;;;7.50;6.70;;;;;;;53.60;9.98;99275.53;5015152;28;20060;-79
2021/07/18 07:35:30;;;;;;;7.40;6.65;;;;;;;53.87;9.37;99277.38;5032118;28;20759;-76
2021/07/18 07:37:56;;;;;;;6.80;6.05;;;;;;;54.43;8.87;99268.72;4996633;28;20481;-79
2021/07/18 07:40:21;;;;;;;6.40;5.85;;;;;;;54.66;9.55;99288.16;5031123;28;20043;-77
2021/07/18 07:42:48;;;;;;;7.35;6.10;;;;;;;55.00;9.19;99288.63;5032863;28;20044;-76
2021/07/18 07:45:14;;;;;;;10.88;6.70;;;;;;;55.81;9.31;99294.78;4981016;28;20044;-79
2021/07/18 07:47:41;;;;;;;7.22;6.53;;;;;;;56.64;7.91;99294.75;4998755;28;20051;-77
2021/07/18 07:50:12;;;;;;;7.18;6.57;;;;;;;57.17;7.98;99284.97;5032408;28;20112;-79
2021/07/18 07:52:38;;;;;;;8.15;6.55;;;;;;;57.50;6.99;99297.41;5032934;28;20059;-78
2021/07/18 07:55:06;;;;;;;6.90;6.30;;;;;;;57.44;7.85;99285.59;5014522;28;20041;-79
2021/07/18 07:57:35;;;;;;;6.65;6.05;;;;;;;57.71;6.98;99286.19;5015571;28;20404;-75
2021/07/18 08:00:10;;;;;;;8.38;6.30;;;;;;;57.72;7.49;99268.22;4998684;28;20045;-76
2021/07/18 08:02:41;;;;;;;7.20;6.57;;;;;;;57.87;7.45;99271.59;5013571;28;20037;-78
2021/07/18 08:05:08;;;;;;;7.00;6.40;;;;;;;58.23;6.60;99272.84;5014090;28;20583;-77
2021/07/18 08:07:34;;;;;;;7.95;7.18;;;;;;;58.27;6.94;99282.19;5015007;28;20118;-79
2021/07/18 08:10:01;;;;;;;7.72;7.03;;;;;;;58.42;7.21;99274.28;5014881;28;20115;-79
2021/07/18 08:12:27;;;;;;;7.45;6.75;;;;;;;58.17;6.63;99269.47;5033810;28;20041;-79
2021/07/18 08:14:54;;;;;;;7.63;6.90;;;;;;;57.28;7.35;99263.03;5015857;28;20211;-79
2021/07/18 08:17:20;;;;;;;7.78;6.72;;;;;;;57.38;6.84;99266.59;4999764;28;20056;-79
2021/07/18 08:19:46;;;;;;;7.50;6.85;;;;;;;57.29;7.50;99270.25;5040272;28;20041;-77
2021/07/18 08:22:12;;;;;;;9.23;7.35;;;;;;;57.68;6.77;99260.88;5043516;28;20045;-79
2021/07/18 08:24:39;;;;;;;9.15;7.30;;;;;;;57.36;7.14;99272.50;5028615;28;20052;-81
2021/07/18 08:27:05;;;;;;;12.10;8.95;;;;;;;56.68;7.23;99262.22;5035520;28;20041;-80
2021/07/18 08:29:31;;;;;;;7.90;7.10;;;;;;;56.86;7.74;99261.00;5002301;28;20112;-80
2021/07/18 08:31:59;;;;;;;7.22;6.60;;;;;;;57.16;7.53;99254.56;5036459;28;20046;-78
2021/07/18 08:34:26;;;;;;;8.18;7.57;;;;;;;56.63;7.64;99238.13;5035205;28;20022;-80
2021/07/18 08:36:52;;;;;;;8.13;7.20;;;;;;;55.96;7.63;99235.72;5013015;28;20044;-80
2021/07/18 08:39:19;;;;;;;12.85;7.07;;;;;;;53.46;8.40;99242.22;5022416;28;20533;-80
2021/07/18 08:41:45;;;;;;;8.43;7.57;;;;;;;51.24;9.88;99233.19;5018195;28;20041;-79
2021/07/18 08:44:14;;;;;;;9.38;7.70;;;;;;;49.47;11.11;99237.94;5036502;28;20072;-82
2021/07/18 08:46:41;;;;;;;9.63;7.43;;;;;;;47.78;12.39;99231.41;5034472;28;20132;-79
2021/07/18 08:49:08;;;;;;;8.05;7.28;;;;;;;47.14;12.73;99230.69;4982900;28;20041;-80
2021/07/18 08:51:35;;;;;;;7.60;6.75;;;;;;;48.16;12.56;99225.63;5033320;28;20520;-77
2021/07/18 08:54:02;;;;;;;8.25;7.40;;;;;;;47.42;12.54;99236.00;5032755;28;20088;-79
2021/07/18 08:56:32;;;;;;;7.60;6.90;;;;;;;46.77;12.95;99229.66;5032186;28;20045;-81
2021/07/18 08:59:07;;;;;;;;;;;;;;;48.35;12.59;99227.84;5014630;28;20052;-83
2021/07/18 09:01:34;;;;;;;8.52;7.32;;;;;;;50.14;11.54;99215.34;5032082;28;19936;-80
2021/07/18 09:04:01;;;;;;;7.47;6.88;;;;;;;51.34;10.94;99215.59;4997694;28;20033;-76
2021/07/18 09:06:39;;;;;;;7.38;6.68;;;;;;;52.32;10.02;99233.44;5031888;28;20084;-77
2021/07/18 09:09:07;;;;;;;8.48;7.75;;;;;;;52.73;9.75;99223.53;5013253;28;20509;-76
2021/07/18 09:11:33;;;;;;;7.72;7.03;;;;;;;53.31;9.72;99213.66;5014115;28;20460;-79
2021/07/18 09:14:02;;;;;;;9.45;7.32;;;;;;;52.86;9.23;99216.28;5014644;28;20046;-79
2021/07/18 09:16:39;;;;;;;7.78;7.15;;;;;;;50.53;10.70;99214.41;5031552;28;20034;-78
2021/07/18 09:19:23;;;;;;;8.55;7.75;;;;;;;48.63;11.66;99209.84;5029823;28;20050;-79
2021/07/18 09:22:05;;;;;;;8.00;7.40;;;;;;;48.12;12.25;99216.28;5031208;28;20037;-76
2021/07/18 09:24:36;;;;;;;10.43;7.47;;;;;;;49.21;11.88;99207.69;5010008;28;20514;-78
2021/07/18 09:27:12;;;;;;;8.50;7.60;;;;;;;50.46;10.86;99203.66;5011936;28;20067;-78
2021/07/18 09:29:48;;;;;;;7.55;6.85;;;;;;;51.41;10.93;99207.75;5015676;28;20042;-79
2021/07/18 09:32:29;;;;;;;8.10;7.35;;;;;;;51.79;10.11;99210.47;5013385;28;20034;-79
2021/07/18 09:34:57;;;;;;;8.18;7.35;;;;;;;51.56;10.42;99208.66;5006050;28;20045;-80
2021/07/18 09:37:26;;;;;;;8.63;7.75;;;;;;;51.25;10.38;99206.34;5013065;28;20486;-81
2021/07/18 09:39:55;;;;;;;7.82;7.20;;;;;;;49.69;11.15;99198.81;4993373;28;20430;-76
2021/07/18 09:42:42;;;;;;;11.23;7.93;;;;;;;48.13;12.24;99206.91;4978759;28;20092;-80
2021/07/18 09:45:11;;;;;;;7.80;7.00;;;;;;;48.18;12.46;99193.13;5010755;28;20049;-80
2021/07/18 09:48:09;;;;;;;8.00;7.20;;;;;;;48.07;12.58;99205.25;5010415;28;20038;-78
2021/07/18 09:50:40;;;;;;;8.85;7.88;;;;;;;46.44;13.32;99193.22;5011602;28;20061;-81
2021/07/18 09:53:17;;;;;;;11.07;8.18;;;;;;;45.04;14.39;99190.22;5010747;28;20138;-78
2021/07/18 09:56:08;;;;;;;8.35;7.68;;;;;;;45.65;14.42;99190.09;4977182;28;20093;-77
2021/07/18 09:58:55;;;;;;;8.93;8.02;;;;;;;45.88;13.87;99183.41;4979066;28;20046;-76
2021/07/18 10:01:22;;;;;;;11.07;7.95;;;;;;;45.04;14.65;99176.50;5013961;28;20528;-79
2021/07/18 10:03:52;;;;;;;8.60;7.70;;;;;;;44.33;15.26;99186.22;5015155;28;20428;-76
2021/07/18 10:06:20;;;;;;;9.52;7.78;;;;;;;43.71;15.51;99191.53;4982244;28;20061;-80
2021/07/18 10:08:51;;;;;;;9.35;8.10;;;;;;;44.68;15.59;99172.22;4999359;28;20052;-76
2021/07/18 10:11:19;;;;;;;8.82;7.90;;;;;;;46.49;14.51;99169.56;4997730;28;20413;-77
2021/07/18 10:13:47;;;;;;;9.15;7.70;;;;;;;46.98;14.08;99133.47;4996522;28;20044;-76
2021/07/18 10:16:15;;;;;;;9.05;7.53;;;;;;;47.84;13.41;99162.53;5012782;28;20158;-80
2021/07/18 10:18:45;;;;;;;11.55;8.25;;;;;;;48.34;12.88;99158.06;4981163;28;20034;-78
2021/07/18 10:21:14;;;;;;;12.00;7.80;;;;;;;48.77;12.68;99156.88;4997438;28;20076;-79
2021/07/18 10:23:41;;;;;;;8.88;7.43;;;;;;;49.28;12.44;99151.03;5028779;28;20064;-79
2021/07/18 10:26:13;;;;;;;9.43;8.48;;;;;;;49.24;12.03;99140.88;5034713;28;20608;-76
2021/07/18 10:28:39;;;;;;;11.90;8.27;;;;;;;49.45;11.92;99152.59;5033670;28;20044;-78
2021/07/18 10:31:10;;;;;;;9.40;8.43;;;;;;;49.60;11.95;99154.41;4985632;28;20052;-78
2021/07/18 10:33:37;;;;;;;10.18;8.82;;;;;;;48.94;12.29;99142.69;4999252;28;20037;-81
2021/07/18 10:36:04;;;;;;;10.05;8.35;;;;;;;47.78;12.71;99150.69;5033597;28;20511;-75
2021/07/18 10:38:34;;;;;;;10.07;8.80;;;;;;;46.66;13.58;99144.63;5033827;28;20074;-77
2021/07/18 10:41:00;;;;;;;12.05;8.93;;;;;;;45.36;14.32;99129.09;5020277;28;20041;-77
2021/07/18 10:43:37;;;;;;;10.23;8.80;;;;;;;43.99;15.48;99126.78;5016575;28;20037;-82
2021/07/18 10:46:41;;;;;;;11.43;9.82;;;;;;;42.73;16.45;99123.91;5007174;28;20484;-79
2021/07/18 10:49:15;;;;;;;12.57;10.18;;;;;;;42.08;17.54;99128.50;5016862;28;20033;-80
2021/07/18 10:51:50;;;;;;;10.68;9.30;;;;;;;41.49;17.78;99116.38;5033950;28;20476;-79
2021/07/18 10:54:23;;;;;;;10.65;9.57;;;;;;;40.85;18.21;99116.00;5016418;28;20041;-84
2021/07/18 10:56:54;;;;;;;10.27;9.27;;;;;;;40.37;19.04;99112.94;5032731;28;20050;-78
2021/07/18 10:59:39;;;;;;;10.35;9.02;;;;;;;40.00;19.27;99121.84;4999084;28;20469;-81
2021/07/18 11:02:19;;;;;;;9.52;8.50;;;;;;;39.58;19.63;99108.78;5033663;28;20037;-81
2021/07/18 11:04:53;;;;;;;12.50;9.13;;;;;;;39.33;19.77;99108.72;5015333;28;20099;-80
2021/07/18 11:07:33;;;;;;;13.55;9.43;;;;;;;38.90;20.02;99098.47;4999545;28;20041;-80
2021/07/18 11:10:11;;;;;;;;;;;;;;;38.60;20.81;99112.59;5032961;28;20501;-82
2021/07/18 11:13:21;;;;;;;15.05;9.15;;;;;;;38.04;21.21;99093.88;5013720;28;20305;-80
2021/07/18 11:15:58;;;;;;;9.63;8.32;;;;;;;37.50;22.02;99069.44;4937863;28;20077;-81
2021/07/18 11:18:37;;;;;;;13.43;9.38;;;;;;;36.99;22.13;98991.31;5000379;28;20064;-81
2021/07/18 11:21:29;;;;;;;10.25;8.82;;;;;;;37.45;21.86;99038.56;5009502;28;20041;-81
2021/07/18 11:23:55;;;;;;;11.07;8.32;;;;;;;37.37;21.72;99050.41;5020669;28;20133;-80
2021/07/18 11:26:21;;;;;;;11.43;8.52;;;;;;;37.60;22.21;99107.00;5047695;28;20096;-81
2021/07/18 11:29:04;;;;;;;10.35;7.90;;;;;;;37.52;22.32;99099.91;5036421;28;20039;-80
2021/07/18 11:31:40;;;;;;;16.65;8.80;;;;;;;37.28;22.51;99087.75;5016174;28;20175;-78
2021/07/18 11:34:12;;;;;;;9.80;8.52;;;;;;;36.70;22.99;99031.25;5000114;28;20045;-78